Time;durP1;ratioP1;P1;durP2;ratioP2;P2;SDS_P1;SDS_P2;PMS_P1;PMS_P2;Temp;Humidity;BMP_temperature;BMP_pressure;BME280_temperature;BME280_humidity;BME280_pressure;Samples;Min_cycle;Max_cycle;Signal;HPM_P1;HPM_P2
2022/12/02 00:00:19;;;;;;;44.70;25.07;;;3.20;99.90;;;;;;5074402;28;20492;-70
2022/12/02 00:02:47;;;;;;;41.23;25.57;;;3.20;99.90;;;;;;5074649;28;20442;-70
2022/12/02 00:05:29;;;;;;;42.87;24.20;;;3.20;99.90;;;;;;5074559;28;20562;-70
2022/12/02 00:07:59;;;;;;;50.07;25.33;;;3.20;99.90;;;;;;5074592;28;20541;-70
2022/12/02 00:10:28;;;;;;;40.03;24.10;;;3.20;99.90;;;;;;5074422;28;20485;-70
2022/12/02 00:12:57;;;;;;;44.33;23.73;;;3.30;99.90;;;;;;5075074;28;20553;-70
2022/12/02 00:15:40;;;;;;;47.43;26.33;;;3.30;99.90;;;;;;5074610;28;20469;-70
2022/12/02 00:18:08;;;;;;;39.87;23.57;;;3.30;99.90;;;;;;5075645;28;20442;-70
2022/12/02 00:20:35;;;;;;;44.73;23.80;;;3.30;99.90;;;;;;5076325;28;20777;-70
2022/12/02 00:23:02;;;;;;;43.63;25.53;;;3.30;99.90;;;;;;5076662;28;20553;-71
2022/12/02 00:25:29;;;;;;;42.87;24.70;;;3.30;99.90;;;;;;5076727;28;20847;-71
2022/12/02 00:27:56;;;;;;;45.00;25.00;;;3.30;99.90;;;;;;5076226;28;20841;-71
2022/12/02 00:30:23;;;;;;;42.87;25.73;;;3.30;99.90;;;;;;5076108;28;20577;-71
2022/12/02 00:32:51;;;;;;;46.20;24.87;;;3.30;99.90;;;;;;5076149;28;20842;-71
2022/12/02 00:35:18;;;;;;;43.80;25.30;;;3.30;99.90;;;;;;5076249;28;20497;-71
2022/12/02 00:37:45;;;;;;;46.70;25.07;;;3.30;99.90;;;;;;5078613;28;20518;-71
2022/12/02 00:40:13;;;;;;;44.47;24.87;;;3.30;99.90;;;;;;5080180;28;20522;-71
2022/12/02 00:42:40;;;;;;;45.77;25.90;;;3.30;99.90;;;;;;5080007;28;20468;-71
2022/12/02 00:47:54;;;;;;;37.83;24.97;;;3.30;99.90;;;;;;5080623;28;20437;-71
2022/12/02 00:50:21;;;;;;;44.50;24.60;;;3.20;99.90;;;;;;5080349;28;20502;-71
2022/12/02 00:52:48;;;;;;;47.60;25.67;;;3.20;99.90;;;;;;5079754;28;20540;-71
2022/12/02 00:55:15;;;;;;;47.90;26.27;;;3.20;99.90;;;;;;5079957;28;20846;-71
2022/12/02 00:57:42;;;;;;;46.70;26.93;;;3.20;99.90;;;;;;5080202;28;20541;-71
2022/12/02 01:00:10;;;;;;;45.23;26.03;;;3.30;99.90;;;;;;5080131;28;20450;-71
2022/12/02 01:02:37;;;;;;;44.77;25.50;;;3.30;99.90;;;;;;5080283;28;20990;-71
2022/12/02 01:05:06;;;;;;;43.10;25.97;;;3.30;99.90;;;;;;5080788;28;20540;-71
2022/12/02 01:07:33;;;;;;;50.33;27.27;;;3.30;99.90;;;;;;5079530;28;20494;-71
2022/12/02 01:10:00;;;;;;;42.47;25.63;;;3.30;99.90;;;;;;5079691;28;20477;-70
2022/12/02 01:12:27;;;;;;;46.43;26.90;;;3.30;99.90;;;;;;5079855;28;20500;-70
2022/12/02 01:14:54;;;;;;;48.63;26.00;;;3.30;99.90;;;;;;5079571;28;20880;-71
2022/12/02 01:17:20;;;;;;;44.40;26.77;;;3.30;99.90;;;;;;5079519;28;20547;-71
2022/12/02 01:19:47;;;;;;;42.90;26.37;;;3.30;99.90;;;;;;5079835;28;20486;-71
2022/12/02 01:22:15;;;;;;;47.23;26.23;;;3.30;99.90;;;;;;5079905;28;20564;-71
2022/12/02 01:24:42;;;;;;;43.83;24.33;;;3.30;99.90;;;;;;5079584;28;20477;-71
2022/12/02 01:27:09;;;;;;;43.80;25.13;;;3.30;99.90;;;;;;5079680;28;20493;-71
2022/12/02 01:29:36;;;;;;;46.10;26.20;;;3.30;99.90;;;;;;5080933;28;20527;-71
2022/12/02 01:32:03;;;;;;;45.53;25.83;;;3.30;99.90;;;;;;5081664;28;20466;-71
2022/12/02 01:34:30;;;;;;;40.30;24.97;;;3.30;99.90;;;;;;5082382;28;20549;-71
2022/12/02 01:36:57;;;;;;;45.23;25.37;;;3.30;99.90;;;;;;5078885;28;20886;-71
2022/12/02 01:39:25;;;;;;;40.30;24.97;;;3.30;99.90;;;;;;5079160;28;20970;-70
2022/12/02 01:41:52;;;;;;;44.70;25.10;;;3.30;99.90;;;;;;5078967;28;20517;-71
2022/12/02 01:44:19;;;;;;;41.47;26.70;;;3.30;99.90;;;;;;5079032;28;20460;-70
2022/12/02 01:46:46;;;;;;;40.27;25.43;;;3.30;99.90;;;;;;5079189;28;20923;-71
2022/12/02 01:49:13;;;;;;;42.50;24.17;;;3.40;99.90;;;;;;5077882;28;20492;-71
2022/12/02 01:51:39;;;;;;;45.63;25.60;;;3.30;99.90;;;;;;5078928;28;20985;-71
2022/12/02 01:54:06;;;;;;;43.97;26.03;;;3.40;99.90;;;;;;5079016;28;20553;-71
2022/12/02 01:56:35;;;;;;;44.23;24.40;;;3.40;99.90;;;;;;5079165;28;20584;-71
2022/12/02 01:59:02;;;;;;;46.00;25.10;;;3.40;99.90;;;;;;5079409;28;20450;-71
2022/12/02 02:01:31;;;;;;;45.27;26.40;;;3.40;99.90;;;;;;5078749;28;20501;-71
2022/12/02 02:03:59;;;;;;;43.33;23.97;;;3.40;99.90;;;;;;5078970;28;20533;-71
2022/12/02 02:06:28;;;;;;;44.33;24.70;;;3.40;99.90;;;;;;5079081;28;20454;-71
2022/12/02 02:08:56;;;;;;;40.33;24.10;;;3.40;99.90;;;;;;5078570;28;20852;-70
2022/12/02 02:11:25;;;;;;;42.23;23.50;;;3.40;99.90;;;;;;5079266;28;20534;-71
2022/12/02 02:13:54;;;;;;;41.90;23.43;;;3.40;99.90;;;;;;5079096;28;20944;-71
2022/12/02 02:16:21;;;;;;;42.50;24.70;;;3.40;99.90;;;;;;5079217;28;20497;-71
2022/12/02 02:18:48;;;;;;;37.80;25.70;;;3.40;99.90;;;;;;5078871;28;20985;-70
2022/12/02 02:21:19;;;;;;;41.20;25.60;;;3.40;99.90;;;;;;5078940;28;20494;-71
2022/12/02 02:23:47;;;;;;;44.97;26.50;;;3.40;99.90;;;;;;5079451;28;20474;-71
2022/12/02 02:26:14;;;;;;;41.90;22.93;;;3.40;99.90;;;;;;5078808;28;20962;-71
2022/12/02 02:28:41;;;;;;;46.67;25.33;;;3.40;99.90;;;;;;5079370;28;20550;-71
2022/12/02 02:31:08;;;;;;;40.90;24.30;;;3.40;99.90;;;;;;5079055;28;20478;-71
2022/12/02 02:33:36;;;;;;;41.37;24.10;;;3.40;99.90;;;;;;5078732;28;20994;-71
2022/12/02 02:36:04;;;;;;;43.13;25.83;;;3.40;99.90;;;;;;5078836;28;20558;-71
2022/12/02 02:38:31;;;;;;;42.47;25.20;;;3.40;99.90;;;;;;5079339;28;20534;-71
2022/12/02 02:41:00;;;;;;;43.47;24.73;;;3.40;99.90;;;;;;5078934;28;20788;-71
2022/12/02 02:43:29;;;;;;;39.40;23.10;;;3.40;99.90;;;;;;5078509;28;21001;-71
2022/12/02 02:45:58;;;;;;;46.80;25.30;;;3.40;99.90;;;;;;5078241;28;20557;-71
2022/12/02 02:48:26;;;;;;;45.77;25.93;;;3.30;99.90;;;;;;5077968;28;20454;-71
2022/12/02 02:50:54;;;;;;;43.90;23.67;;;3.30;99.90;;;;;;5078144;28;20518;-71
2022/12/02 02:53:23;;;;;;;41.37;25.93;;;3.40;99.90;;;;;;5078168;28;20533;-71
2022/12/02 02:55:50;;;;;;;40.87;23.83;;;3.40;99.90;;;;;;5077912;28;20454;-71
2022/12/02 02:58:20;;;;;;;45.10;24.80;;;3.40;99.90;;;;;;5078184;28;20513;-71
2022/12/02 03:00:51;;;;;;;43.80;26.37;;;3.40;99.90;;;;;;5077538;28;20486;-71
2022/12/02 03:03:21;;;;;;;43.17;24.80;;;3.30;99.90;;;;;;5077666;28;20469;-71
2022/12/02 03:05:51;;;;;;;41.77;25.20;;;3.40;99.90;;;;;;5078281;28;20949;-71
2022/12/02 03:08:19;;;;;;;41.33;23.73;;;3.40;99.90;;;;;;5077751;28;20848;-71
2022/12/02 03:10:46;;;;;;;40.60;24.27;;;3.40;99.90;;;;;;5077529;28;20510;-71
2022/12/02 03:13:13;;;;;;;42.97;24.90;;;3.40;99.90;;;;;;5077297;28;20541;-71
2022/12/02 03:15:41;;;;;;;42.50;24.43;;;3.40;99.90;;;;;;5077245;28;20454;-71
2022/12/02 03:18:09;;;;;;;40.07;23.77;;;3.30;99.90;;;;;;5077441;28;20489;-71
2022/12/02 03:20:36;;;;;;;39.93;22.87;;;3.30;99.90;;;;;;5077242;28;20942;-71
2022/12/02 03:23:03;;;;;;;37.60;23.20;;;3.30;99.90;;;;;;5077101;28;20546;-71
2022/12/02 03:25:30;;;;;;;40.23;24.60;;;3.30;99.90;;;;;;5077093;28;20541;-70
2022/12/02 03:27:58;;;;;;;40.87;23.17;;;3.30;99.90;;;;;;5077336;28;20454;-70
2022/12/02 03:30:25;;;;;;;39.23;24.57;;;3.30;99.90;;;;;;5076861;28;20856;-71
2022/12/02 03:32:54;;;;;;;41.00;23.97;;;3.30;99.90;;;;;;5077668;28;20537;-71
2022/12/02 03:35:21;;;;;;;36.93;21.70;;;3.20;99.90;;;;;;5076521;28;20520;-71
2022/12/02 03:37:48;;;;;;;38.60;23.43;;;3.30;99.90;;;;;;5076527;28;20628;-70
2022/12/02 03:40:15;;;;;;;38.53;22.70;;;3.20;99.90;;;;;;5076718;28;20843;-71
2022/12/02 03:42:42;;;;;;;39.20;22.53;;;3.20;99.90;;;;;;5076977;28;20975;-71
2022/12/02 03:45:11;;;;;;;36.10;20.60;;;3.20;99.90;;;;;;5076865;28;20553;-71
2022/12/02 03:47:39;;;;;;;35.13;22.20;;;3.20;99.90;;;;;;5076594;28;20858;-70
2022/12/02 03:50:09;;;;;;;34.13;21.27;;;3.20;99.90;;;;;;5076603;28;20675;-71
2022/12/02 03:52:36;;;;;;;36.77;22.77;;;3.20;99.90;;;;;;5076113;28;20501;-70
2022/12/02 03:55:03;;;;;;;38.87;23.10;;;3.30;99.90;;;;;;5076481;28;20541;-71
2022/12/02 03:57:32;;;;;;;36.60;21.77;;;3.30;99.90;;;;;;5076738;28;20501;-71
2022/12/02 03:59:59;;;;;;;34.77;21.53;;;3.30;99.90;;;;;;5076238;28;20486;-70
2022/12/02 04:02:26;;;;;;;33.60;20.63;;;3.40;99.90;;;;;;5076267;28;20554;-70
2022/12/02 04:04:53;;;;;;;36.67;22.23;;;3.40;99.90;;;;;;5075951;28;20494;-70
2022/12/02 04:07:21;;;;;;;37.93;22.30;;;3.40;99.90;;;;;;5075970;28;20543;-70
2022/12/02 04:09:48;;;;;;;32.50;20.47;;;3.40;99.90;;;;;;5075871;28;20484;-70
2022/12/02 04:12:14;;;;;;;32.90;20.67;;;3.40;99.90;;;;;;5077688;28;20549;-70
2022/12/02 04:14:41;;;;;;;35.80;20.33;;;3.40;99.90;;;;;;5080091;28;20486;-71
2022/12/02 04:17:08;;;;;;;34.77;21.60;;;3.30;99.90;;;;;;5080075;28;20534;-71
2022/12/02 04:19:35;;;;;;;36.87;22.27;;;3.30;99.90;;;;;;5079903;28;20545;-71
2022/12/02 04:22:02;;;;;;;33.27;20.77;;;3.30;99.90;;;;;;5080194;28;20472;-71
2022/12/02 04:24:30;;;;;;;33.37;20.60;;;3.30;99.90;;;;;;5080498;28;20500;-71
2022/12/02 04:26:57;;;;;;;33.77;21.37;;;3.40;99.90;;;;;;5082261;28;20554;-71
2022/12/02 04:29:24;;;;;;;33.30;20.10;;;3.40;99.90;;;;;;5082771;28;20490;-71
2022/12/02 04:31:51;;;;;;;32.57;21.17;;;3.30;99.90;;;;;;5081144;28;20477;-71
2022/12/02 04:34:17;;;;;;;32.10;21.67;;;3.30;99.90;;;;;;5080558;28;20987;-71
2022/12/02 04:36:44;;;;;;;30.30;20.30;;;3.30;99.90;;;;;;5079806;28;20490;-71
2022/12/02 04:39:11;;;;;;;32.50;19.40;;;3.30;99.90;;;;;;5079927;28;20457;-71
2022/12/02 04:41:39;;;;;;;31.10;20.20;;;3.30;99.90;;;;;;5080159;28;20571;-71
2022/12/02 04:44:06;;;;;;;32.03;19.80;;;3.30;99.90;;;;;;5079849;28;20994;-71
2022/12/02 04:46:33;;;;;;;35.03;19.63;;;3.30;99.90;;;;;;5079663;28;20486;-71
2022/12/02 04:49:00;;;;;;;33.40;20.63;;;3.30;99.90;;;;;;5079673;28;20550;-71
2022/12/02 04:51:26;;;;;;;32.50;21.10;;;3.30;99.90;;;;;;5080570;28;20482;-71
2022/12/02 04:53:53;;;;;;;30.83;20.33;;;3.30;99.90;;;;;;5080248;28;20541;-71
2022/12/02 04:56:20;;;;;;;33.77;21.53;;;3.40;99.90;;;;;;5079694;28;20485;-71
2022/12/02 04:58:48;;;;;;;33.20;21.10;;;3.40;99.90;;;;;;5079729;28;20823;-71
2022/12/02 05:01:15;;;;;;;31.10;20.13;;;3.40;99.90;;;;;;5079553;28;20453;-71
2022/12/02 05:03:42;;;;;;;33.53;20.70;;;3.40;99.90;;;;;;5079741;28;20500;-71
2022/12/02 05:06:09;;;;;;;31.23;19.50;;;3.40;99.90;;;;;;5079519;28;20838;-71
2022/12/02 05:08:36;;;;;;;34.30;20.00;;;3.40;99.90;;;;;;5079571;28;20552;-71
2022/12/02 05:11:03;;;;;;;33.53;19.23;;;3.40;99.90;;;;;;5079386;28;20668;-71
2022/12/02 05:13:29;;;;;;;31.17;20.47;;;3.40;99.90;;;;;;5079633;28;20537;-70
2022/12/02 05:15:58;;;;;;;31.33;19.63;;;3.40;99.90;;;;;;5079239;28;20458;-71
2022/12/02 05:18:24;;;;;;;33.40;21.53;;;3.40;99.90;;;;;;5078998;28;20544;-71
2022/12/02 05:20:51;;;;;;;30.53;19.57;;;3.40;99.90;;;;;;5079420;28;20450;-71
2022/12/02 05:23:18;;;;;;;30.33;19.20;;;3.40;99.90;;;;;;5079332;28;20501;-67
2022/12/02 05:25:45;;;;;;;30.20;18.40;;;3.40;99.90;;;;;;5079298;28;20464;-67
2022/12/02 05:28:12;;;;;;;31.47;18.20;;;3.40;99.90;;;;;;5079203;28;20501;-67
2022/12/02 05:30:39;;;;;;;32.27;20.17;;;3.40;99.90;;;;;;5078955;28;20503;-67
2022/12/02 05:33:07;;;;;;;26.50;18.20;;;3.40;99.90;;;;;;5079494;28;20460;-67
2022/12/02 05:35:34;;;;;;;28.73;19.03;;;3.40;99.90;;;;;;5079371;28;20469;-67
2022/12/02 05:38:01;;;;;;;33.87;19.43;;;3.40;99.90;;;;;;5079307;28;20965;-67
2022/12/02 05:40:27;;;;;;;27.43;17.97;;;3.40;99.90;;;;;;5078897;28;20913;-66
2022/12/02 05:42:55;;;;;;;25.00;17.03;;;3.40;99.90;;;;;;5078944;28;20496;-67
2022/12/02 05:45:23;;;;;;;25.00;17.20;;;3.40;99.90;;;;;;5079700;28;20545;-66
2022/12/02 05:47:53;;;;;;;30.47;17.87;;;3.40;99.90;;;;;;5078918;28;20538;-67
2022/12/02 05:50:22;;;;;;;25.67;17.57;;;3.40;99.90;;;;;;5079907;28;20478;-66
2022/12/02 05:52:49;;;;;;;26.17;16.80;;;3.40;99.90;;;;;;5078990;28;20458;-65
2022/12/02 05:55:18;;;;;;;26.67;17.63;;;3.40;99.90;;;;;;5079084;28;20554;-66
2022/12/02 05:57:45;;;;;;;59.17;33.00;;;3.40;99.90;;;;;;5078277;28;20541;-67
2022/12/02 06:00:16;;;;;;;46.37;29.00;;;3.40;99.90;;;;;;5078947;28;20529;-67
2022/12/02 06:02:46;;;;;;;29.60;18.03;;;3.40;99.90;;;;;;5079106;28;20438;-67
2022/12/02 06:05:18;;;;;;;28.10;18.33;;;3.40;99.90;;;;;;5078793;28;20455;-67
2022/12/02 06:07:47;;;;;;;30.77;19.53;;;3.40;99.90;;;;;;5078999;28;20815;-66
2022/12/02 06:10:24;;;;;;;27.13;18.30;;;3.40;99.90;;;;;;5079317;28;20548;-66
2022/12/02 06:12:54;;;;;;;30.23;18.80;;;3.40;99.90;;;;;;5079063;28;20466;-67
2022/12/02 06:15:21;;;;;;;27.60;17.37;;;3.40;99.90;;;;;;5080097;28;20823;-66
2022/12/02 06:17:47;;;;;;;26.40;17.50;;;3.40;99.90;;;;;;5078232;28;20458;-67
2022/12/02 06:20:25;;;;;;;26.23;17.83;;;3.40;99.90;;;;;;5079095;28;20810;-66
2022/12/02 06:22:53;;;;;;;25.60;16.13;;;3.30;99.90;;;;;;5078329;28;20525;-66
2022/12/02 06:25:25;;;;;;;29.63;17.80;;;3.40;99.90;;;;;;5078450;28;20953;-67
2022/12/02 06:27:55;;;;;;;24.90;16.20;;;3.40;99.90;;;;;;5078532;28;20543;-67
2022/12/02 06:30:22;;;;;;;26.70;18.00;;;3.40;99.90;;;;;;5078842;28;20446;-67
2022/12/02 06:32:54;;;;;;;22.43;14.83;;;3.40;99.90;;;;;;5078946;28;20848;-68
2022/12/02 06:35:24;;;;;;;24.60;16.73;;;3.40;99.90;;;;;;5079116;28;20891;-66
2022/12/02 06:37:54;;;;;;;24.37;16.80;;;3.40;99.90;;;;;;5077690;28;20541;-67
2022/12/02 06:40:24;;;;;;;25.13;16.83;;;3.40;99.90;;;;;;5078265;28;20537;-68
2022/12/02 06:42:51;;;;;;;25.77;17.27;;;3.40;99.90;;;;;;5078674;28;20521;-66
2022/12/02 06:45:23;;;;;;;27.83;17.77;;;3.40;99.90;;;;;;5079019;28;20527;-67
2022/12/02 06:48:00;;;;;;;27.70;17.07;;;3.40;99.90;;;;;;5078147;28;20438;-66
2022/12/02 06:50:33;;;;;;;25.93;17.13;;;3.40;99.90;;;;;;5078388;28;20484;-67
2022/12/02 06:53:23;;;;;;;26.73;15.90;;;3.40;99.90;;;;;;5078047;28;20782;-67
2022/12/02 06:55:52;;;;;;;22.17;16.13;;;3.40;99.90;;;;;;5078992;28;20858;-67
2022/12/02 06:58:29;;;;;;;26.67;17.73;;;3.40;99.90;;;;;;5077696;28;20462;-67
2022/12/02 07:01:08;;;;;;;30.00;17.33;;;3.40;99.90;;;;;;5078579;28;20442;-67
2022/12/02 07:03:38;;;;;;;25.30;16.90;;;3.40;99.90;;;;;;5079033;28;20448;-67
2022/12/02 07:06:14;;;;;;;26.50;16.30;;;3.40;99.90;;;;;;5079014;28;20848;-66
2022/12/02 07:08:42;;;;;;;23.10;16.47;;;3.40;99.90;;;;;;5079011;28;20470;-66
2022/12/02 07:11:19;;;;;;;29.97;16.03;;;3.40;99.90;;;;;;5078243;28;20569;-67
2022/12/02 07:13:46;;;;;;;24.27;16.30;;;3.50;99.90;;;;;;5077986;28;20437;-67
2022/12/02 07:16:31;;;;;;;27.03;17.20;;;3.50;99.90;;;;;;5078007;28;20464;-66
2022/12/02 07:18:59;;;;;;;28.37;17.30;;;3.50;99.90;;;;;;5078925;28;20764;-66
2022/12/02 07:21:26;;;;;;;25.17;16.40;;;3.50;99.90;;;;;;5078447;28;20549;-65
2022/12/02 07:23:55;;;;;;;26.60;17.23;;;3.50;99.90;;;;;;5078594;28;20547;-68
2022/12/02 07:26:22;;;;;;;29.97;17.23;;;3.50;99.90;;;;;;5078076;28;20533;-67
2022/12/02 07:28:51;;;;;;;24.90;16.50;;;3.50;99.90;;;;;;5077905;28;20454;-67
2022/12/02 07:31:21;;;;;;;29.63;16.17;;;3.50;99.90;;;;;;5077773;28;20493;-67
2022/12/02 07:33:49;;;;;;;26.33;15.63;;;3.50;99.90;;;;;;5079242;28;20548;-67
2022/12/02 07:36:16;;;;;;;23.03;15.30;;;3.50;99.90;;;;;;5078488;28;20489;-67
2022/12/02 07:38:42;;;;;;;24.83;16.07;;;3.40;99.90;;;;;;5078594;28;20527;-67
2022/12/02 07:41:12;;;;;;;23.27;16.60;;;3.40;99.90;;;;;;5078399;28;20493;-67
2022/12/02 07:43:39;;;;;;;21.33;14.10;;;3.40;99.90;;;;;;5078235;28;20856;-67
2022/12/02 07:46:06;;;;;;;24.03;16.17;;;3.40;99.90;;;;;;5077108;28;20917;-67
2022/12/02 07:48:33;;;;;;;25.03;14.97;;;3.40;99.90;;;;;;5078632;28;20482;-67
2022/12/02 07:51:00;;;;;;;26.87;16.03;;;3.40;99.90;;;;;;5078297;28;20577;-67
2022/12/02 07:53:27;;;;;;;23.70;15.23;;;3.40;99.90;;;;;;5077860;28;20454;-67
2022/12/02 07:55:54;;;;;;;23.00;15.77;;;3.40;99.90;;;;;;5078109;28;20504;-67
2022/12/02 07:58:23;;;;;;;27.00;17.37;;;3.40;99.90;;;;;;5077732;28;20454;-67
2022/12/02 08:00:49;;;;;;;27.60;17.93;;;3.40;99.90;;;;;;5077080;28;20458;-67
2022/12/02 08:03:16;;;;;;;28.53;17.80;;;3.40;99.90;;;;;;5077333;28;20533;-67
2022/12/02 08:05:43;;;;;;;27.37;16.87;;;3.40;99.90;;;;;;5077477;28;20489;-68
2022/12/02 08:08:10;;;;;;;28.80;16.23;;;3.40;99.90;;;;;;5078328;28;20545;-67
2022/12/02 08:10:37;;;;;;;26.90;16.50;;;3.50;99.90;;;;;;5077986;28;20819;-67
2022/12/02 08:13:04;;;;;;;26.90;16.70;;;3.40;99.90;;;;;;5079060;28;20484;-68
2022/12/02 08:15:32;;;;;;;28.97;17.63;;;3.30;99.90;;;;;;5078523;28;20535;-67
2022/12/02 08:17:59;;;;;;;27.50;17.60;;;3.40;99.90;;;;;;5077702;28;20494;-66
2022/12/02 08:20:27;;;;;;;25.57;16.20;;;3.30;99.90;;;;;;5077588;28;20526;-67
2022/12/02 08:22:54;;;;;;;31.13;17.67;;;3.30;99.90;;;;;;5078108;28;20465;-66
2022/12/02 08:25:20;;;;;;;32.80;16.80;;;3.40;99.90;;;;;;5077661;28;20557;-67
2022/12/02 08:27:47;;;;;;;26.60;17.50;;;3.30;99.90;;;;;;5078065;28;20539;-67
2022/12/02 08:30:16;;;;;;;30.77;18.57;;;3.40;99.90;;;;;;5077384;28;20541;-67
2022/12/02 08:32:44;;;;;;;28.30;16.67;;;3.40;99.90;;;;;;5077657;28;20482;-67
2022/12/02 08:35:12;;;;;;;26.10;16.63;;;3.40;99.90;;;;;;5077195;28;20504;-68
2022/12/02 08:37:39;;;;;;;27.77;16.77;;;3.50;99.90;;;;;;5077133;28;20488;-67
2022/12/02 08:40:07;;;;;;;26.23;16.33;;;3.50;99.90;;;;;;5077327;28;20457;-68
2022/12/02 08:42:34;;;;;;;29.43;17.37;;;3.50;99.90;;;;;;5075418;28;21022;-66
2022/12/02 08:45:01;;;;;;;39.90;24.03;;;3.50;99.90;;;;;;5075961;28;20465;-66
2022/12/02 08:47:28;;;;;;;29.03;17.20;;;3.50;99.90;;;;;;5076895;28;20490;-67
2022/12/02 08:49:56;;;;;;;27.50;17.83;;;3.40;99.90;;;;;;5077212;28;20464;-67
2022/12/02 08:52:23;;;;;;;29.53;17.13;;;3.50;99.90;;;;;;5077047;28;20484;-68
2022/12/02 08:54:50;;;;;;;26.67;15.97;;;3.50;99.90;;;;;;5077591;28;20841;-66
2022/12/02 08:57:17;;;;;;;28.50;16.80;;;3.50;99.90;;;;;;5077660;28;20458;-66
2022/12/02 08:59:43;;;;;;;31.03;17.30;;;3.50;99.90;;;;;;5080800;28;20485;-67
2022/12/02 09:02:10;;;;;;;30.10;16.00;;;3.50;99.90;;;;;;5080816;28;20548;-67
2022/12/02 09:04:40;;;;;;;25.43;15.93;;;3.50;99.90;;;;;;5081005;28;20462;-66
2022/12/02 09:07:08;;;;;;;26.47;16.70;;;3.50;99.90;;;;;;5080803;28;20846;-68
2022/12/02 09:09:35;;;;;;;28.43;19.47;;;3.50;99.90;;;;;;5080579;28;20457;-68
2022/12/02 09:12:02;;;;;;;30.47;18.67;;;3.50;99.90;;;;;;5080792;28;20976;-67
2022/12/02 09:14:29;;;;;;;29.73;17.80;;;3.60;99.90;;;;;;5080240;28;20545;-67
2022/12/02 09:16:56;;;;;;;27.70;16.87;;;3.60;99.90;;;;;;5080024;28;20472;-68
2022/12/02 09:19:22;;;;;;;27.40;16.27;;;3.70;99.90;;;;;;5080926;28;20552;-67
2022/12/02 09:21:49;;;;;;;26.83;17.20;;;3.70;99.90;;;;;;5080513;28;20497;-68
2022/12/02 09:24:17;;;;;;;26.90;16.50;;;3.60;99.90;;;;;;5082091;28;20838;-66
2022/12/02 09:26:44;;;;;;;27.43;15.93;;;3.60;99.90;;;;;;5080681;28;20549;-66
2022/12/02 09:29:11;;;;;;;27.43;16.33;;;3.60;99.90;;;;;;5079837;28;20544;-67
2022/12/02 09:31:38;;;;;;;27.83;16.30;;;3.60;99.90;;;;;;5080034;28;20474;-67
2022/12/02 09:34:05;;;;;;;31.30;17.23;;;3.70;99.90;;;;;;5079656;28;20497;-68
2022/12/02 09:36:32;;;;;;;28.93;17.00;;;3.70;99.90;;;;;;5079598;28;20539;-69
2022/12/02 09:38:59;;;;;;;31.17;18.30;;;3.70;99.90;;;;;;5079982;28;20842;-67
2022/12/02 09:41:27;;;;;;;24.67;16.10;;;3.70;99.90;;;;;;5079785;28;20556;-67
2022/12/02 09:43:54;;;;;;;24.17;15.10;;;3.70;99.90;;;;;;5079522;28;20495;-68
2022/12/02 09:46:22;;;;;;;26.83;17.20;;;3.60;99.90;;;;;;5079703;28;20541;-67
2022/12/02 09:48:49;;;;;;;27.90;17.07;;;3.60;99.90;;;;;;5079121;28;20982;-68
2022/12/02 09:51:16;;;;;;;27.90;16.60;;;3.60;99.90;;;;;;5079605;28;20538;-67
2022/12/02 09:53:43;;;;;;;28.73;17.27;;;3.60;99.90;;;;;;5079168;28;20519;-67
2022/12/02 09:56:15;;;;;;;28.97;16.93;;;3.60;99.90;;;;;;5079829;28;20468;-67
2022/12/02 09:58:44;;;;;;;28.30;16.43;;;3.60;99.90;;;;;;5080057;28;20522;-66
2022/12/02 10:01:13;;;;;;;27.70;16.77;;;3.60;99.90;;;;;;5079786;28;20512;-67
2022/12/02 10:03:40;;;;;;;26.40;15.43;;;3.50;99.90;;;;;;5079451;28;20502;-68
2022/12/02 10:06:13;;;;;;;30.30;16.67;;;3.50;99.90;;;;;;5079680;28;20489;-69
2022/12/02 10:08:40;;;;;;;29.00;15.23;;;3.50;99.90;;;;;;5078699;28;20438;-66
2022/12/02 10:11:07;;;;;;;29.33;16.50;;;3.50;99.90;;;;;;5078340;28;20617;-66
2022/12/02 10:13:38;;;;;;;29.33;18.13;;;3.60;99.90;;;;;;5079970;28;20535;-67
2022/12/02 10:16:12;;;;;;;28.63;17.10;;;3.60;99.90;;;;;;5081112;28;20453;-67
2022/12/02 10:18:41;;;;;;;31.63;17.27;;;3.50;99.90;;;;;;5078998;28;20439;-66
2022/12/02 10:21:08;;;;;;;26.80;16.93;;;3.50;99.90;;;;;;5078952;28;20912;-68
2022/12/02 10:23:53;;;;;;;26.80;16.20;;;3.60;99.90;;;;;;5079165;28;20464;-67
2022/12/02 10:26:20;;;;;;;28.63;16.07;;;3.60;99.90;;;;;;5078925;28;20442;-66
2022/12/02 10:29:00;;;;;;;28.17;17.80;;;3.60;99.90;;;;;;5079215;28;20783;-67
2022/12/02 10:31:28;;;;;;;62.73;36.87;;;3.60;99.90;;;;;;5078383;28;20474;-66
2022/12/02 10:33:58;;;;;;;29.70;16.53;;;3.60;99.90;;;;;;5079484;28;20482;-68
2022/12/02 10:36:36;;;;;;;29.17;16.47;;;3.60;99.90;;;;;;5079120;28;20572;-67
2022/12/02 10:39:26;;;;;;;33.53;18.07;;;3.60;99.90;;;;;;5078937;28;20450;-67
2022/12/02 10:42:12;;;;;;;32.93;17.07;;;3.50;99.90;;;;;;5079109;28;20485;-67
2022/12/02 10:44:41;;;;;;;28.30;17.20;;;3.50;99.90;;;;;;5080425;28;20455;-68
2022/12/02 10:47:16;;;;;;;30.50;18.87;;;3.50;99.90;;;;;;5079004;28;20545;-68
2022/12/02 10:49:46;;;;;;;33.20;18.23;;;3.50;99.90;;;;;;5079137;28;20446;-67
2022/12/02 10:52:14;;;;;;;29.73;17.63;;;3.50;99.90;;;;;;5078381;28;20495;-67
2022/12/02 10:54:46;;;;;;;35.50;18.40;;;3.60;99.90;;;;;;5077935;28;20553;-68
2022/12/02 10:57:23;;;;;;;33.87;20.60;;;3.60;99.90;;;;;;5078002;28;20529;-67
2022/12/02 10:59:50;;;;;;;40.43;21.80;;;3.60;99.90;;;;;;5077959;28;20925;-67
2022/12/02 11:02:24;;;;;;;36.40;20.93;;;3.60;99.90;;;;;;5078603;28;20511;-67
2022/12/02 11:04:52;;;;;;;36.13;19.97;;;3.60;99.90;;;;;;5078491;28;20534;-66
2022/12/02 11:07:26;;;;;;;33.87;19.47;;;3.60;99.90;;;;;;5077090;28;20486;-68
2022/12/02 11:09:55;;;;;;;40.90;21.17;;;3.60;99.90;;;;;;5077236;28;20434;-67
2022/12/02 11:12:34;;;;;;;32.90;19.73;;;3.60;99.90;;;;;;5077490;28;20550;-68
2022/12/02 11:15:02;;;;;;;38.33;20.80;;;3.60;99.90;;;;;;5078018;28;20521;-66
2022/12/02 11:17:53;;;;;;;36.30;19.43;;;3.70;99.90;;;;;;5076912;28;20466;-67
2022/12/02 11:20:43;;;;;;;39.23;22.27;;;3.60;99.90;;;;;;5076959;28;20759;-67
2022/12/02 11:23:22;;;;;;;36.60;20.07;;;3.70;99.90;;;;;;5078151;28;20525;-66
2022/12/02 11:25:58;;;;;;;37.90;21.20;;;3.70;99.90;;;;;;5077672;28;20447;-67
2022/12/02 11:29:01;;;;;;;38.80;20.20;;;3.70;99.90;;;;;;5077717;28;20441;-66
2022/12/02 11:31:27;;;;;;;42.10;22.73;;;3.70;99.90;;;;;;5074275;28;20533;-67
2022/12/02 11:34:21;;;;;;;37.07;20.10;;;3.70;99.90;;;;;;5077307;28;20684;-67
2022/12/02 11:37:26;;;;;;;42.07;22.60;;;3.70;99.90;;;;;;5077002;28;20488;-66
2022/12/02 11:39:54;;;;;;;39.50;20.50;;;3.70;99.90;;;;;;5077987;28;20482;-68
2022/12/02 11:42:24;;;;;;;47.47;26.10;;;3.60;99.90;;;;;;5077630;28;20544;-66
2022/12/02 11:44:52;;;;;;;41.90;22.40;;;3.60;99.90;;;;;;5077381;28;20573;-66
2022/12/02 11:47:29;;;;;;;38.43;23.17;;;3.60;99.90;;;;;;5077094;28;20454;-67
2022/12/02 11:50:12;;;;;;;41.60;21.83;;;3.50;99.90;;;;;;5076840;28;20933;-67
2022/12/02 11:52:40;;;;;;;39.10;21.40;;;3.50;99.90;;;;;;5077404;28;20739;-66
2022/12/02 11:55:15;;;;;;;38.80;22.00;;;3.50;99.90;;;;;;5077251;28;20618;-67
2022/12/02 11:57:45;;;;;;;36.47;20.07;;;3.50;99.90;;;;;;5077397;28;20473;-67
2022/12/02 12:00:21;;;;;;;37.00;21.70;;;3.50;99.90;;;;;;5077088;28;20490;-67
2022/12/02 12:03:09;;;;;;;39.70;22.17;;;3.60;99.90;;;;;;5076889;28;20482;-67
2022/12/02 12:05:37;;;;;;;33.43;20.23;;;3.60;99.90;;;;;;5077297;28;20439;-66
2022/12/02 12:08:04;;;;;;;37.53;21.80;;;3.60;99.90;;;;;;5076604;28;20459;-67
2022/12/02 12:10:33;;;;;;;35.97;22.40;;;3.60;99.90;;;;;;5077168;28;20458;-69
2022/12/02 12:13:19;;;;;;;35.20;20.50;;;3.60;99.90;;;;;;5076713;28;20553;-68
2022/12/02 12:15:57;;;;;;;44.57;22.87;;;3.60;99.90;;;;;;5076443;28;20442;-66
2022/12/02 12:18:42;;;;;;;38.00;22.27;;;3.60;99.90;;;;;;5076474;28;20443;-67
2022/12/02 12:21:10;;;;;;;34.13;21.17;;;3.70;99.90;;;;;;5077471;28;20462;-66
2022/12/02 12:23:39;;;;;;;39.53;21.97;;;3.60;99.90;;;;;;5077572;28;20490;-67
2022/12/02 12:26:07;;;;;;;37.77;21.13;;;3.60;99.90;;;;;;5077398;28;20493;-67
2022/12/02 12:28:36;;;;;;;41.00;23.03;;;3.50;99.90;;;;;;5077359;28;20823;-67
2022/12/02 12:31:05;;;;;;;36.90;21.03;;;3.50;99.90;;;;;;5077600;28;20541;-67
2022/12/02 12:33:32;;;;;;;39.60;22.07;;;3.50;99.90;;;;;;5079575;28;20478;-68
2022/12/02 12:35:59;;;;;;;40.87;22.63;;;3.50;99.90;;;;;;5081258;28;20553;-67
2022/12/02 12:38:29;;;;;;;44.10;22.43;;;3.50;99.90;;;;;;5081852;28;20443;-67
2022/12/02 12:40:56;;;;;;;36.23;21.77;;;3.50;99.90;;;;;;5081484;28;20469;-67
2022/12/02 12:43:23;;;;;;;40.83;22.30;;;3.40;99.90;;;;;;5081297;28;20450;-68
2022/12/02 12:45:50;;;;;;;42.77;21.80;;;3.40;99.90;;;;;;5081127;28;20454;-66
2022/12/02 12:48:17;;;;;;;40.63;23.87;;;3.40;99.90;;;;;;5081410;28;20540;-66